Latest Weather Observations for Carnarvon

IDW60801

Issued at 10:35 am WST Tuesday 16 September 2014 (issued every 30 minutes, with the page automatically refreshed every 10 minutes)

About weather observations | Map of weather stations | Latest weather observations for WA | Other Formats
Station Details ID: 006011 Name: CARNARVON AIRPORT Lat: -24.89 Lon: 113.67 Height: 4.0 m
Data from the previous 72 hours. | See also: Recent months at Carnarvon
Date/Time
WST
Temp
°C
App
Temp
°C
Dew
Point
Rel
Hum
%
Delta-T
°C
Wind Press
QNH
hPa
Press
MSL
hPa
Rain
since 9 am
mm
Dir
 
Spd
km/h
Gust
km/h
Spd
kts
Gust
kts
16/10:30am 22.1 21.4 14.4 61 4.5 WSW 11 17 6 9 1012.3 - 0.0
16/10:00am 21.9 20.9 14.6 63 4.3 SW 13 17 7 9 1012.3 - 0.0
16/09:30am 21.5 21.2 14.5 64 4.1 SW 9 15 5 8 1012.3 - 0.0
16/09:00am 21.2 20.6 14.7 66 3.8 SSW 11 15 6 8 1012.4 1012.4 0.0
16/08:30am 20.6 18.9 14.6 68 3.5 SSW 17 20 9 11 1012.5 - 0.0
16/08:00am 20.9 19.5 15.5 71 3.2 SSW 17 22 9 12 1012.1 - 0.0
16/07:30am 20.4 19.2 15.1 71 3.1 SSW 15 19 8 10 1011.8 - 0.0
16/07:00am 19.3 18.9 15.2 77 2.4 S 11 15 6 8 1011.3 - 0.0
16/06:30am 19.0 17.8 15.1 78 2.3 SSW 15 20 8 11 1011.4 - 0.0
16/06:00am 17.8 17.8 15.1 84 1.6 S 9 11 5 6 1011.4 1011.4 0.0
16/05:30am 18.9 18.1 15.1 78 2.2 S 13 17 7 9 1011.0 - 0.0
16/05:00am 18.8 18.0 15.2 79 2.1 SSW 13 19 7 10 1011.2 - 0.0
16/04:30am 17.3 17.0 14.5 83 1.6 S 9 11 5 6 1011.1 - 0.0
16/04:00am 17.9 17.4 14.8 82 1.8 S 11 13 6 7 1011.3 - 0.0
16/03:30am 18.5 17.6 14.9 79 2.1 S 13 17 7 9 1011.2 - 0.0
16/03:00am 18.8 17.7 15.2 79 2.1 S 15 19 8 10 1011.5 1011.5 0.0
16/02:30am 18.5 17.8 15.4 82 1.8 S 13 15 7 8 1011.6 - 0.0
16/02:00am 19.3 18.8 15.9 81 2.0 S 13 17 7 9 1012.1 - 0.0
16/01:30am 19.1 18.6 15.9 82 1.9 SSE 13 15 7 8 1012.2 - 0.0
16/01:00am 20.0 18.9 16.3 79 2.2 S 17 24 9 13 1012.4 - 0.0
16/12:30am 20.2 19.1 16.4 79 2.3 S 17 20 9 11 1012.7 - 0.0
16/12:00am 20.7 18.9 16.9 79 2.3 S 22 28 12 15 1013.3 1013.3 0.0
 
Date/Time
WST
Temp
°C
App
Temp
°C
Dew
Point
Rel
Hum
%
Delta-T
°C
Wind Press
QNH
hPa
Press
MSL
hPa
Rain
since 9 am
mm
Dir
 
Spd
km/h
Gust
km/h
Spd
kts
Gust
kts
15/11:30pm 20.7 19.4 16.7 78 2.4 SSW 19 26 10 14 1013.5 - 0.0
15/11:00pm 20.9 19.7 17.0 78 2.4 SSW 19 28 10 15 1013.9 - 0.0
15/10:30pm 21.1 21.7 18.5 85 1.6 W 13 17 7 9 1014.1 - 0.0
15/10:00pm 21.0 20.9 17.9 82 1.9 WNW 15 17 8 9 1014.2 - 0.0
15/09:30pm 21.1 20.7 18.0 82 1.9 WNW 17 20 9 11 1014.3 - 0.0
15/09:00pm 21.3 21.3 18.1 82 2.0 WNW 15 20 8 11 1014.4 1014.4 0.0
15/08:30pm 21.4 21.2 18.4 83 1.9 W 17 24 9 13 1014.3 - 0.0
15/08:00pm 21.6 21.0 18.4 82 2.0 W 19 24 10 13 1014.1 - 0.0
15/07:30pm 21.8 21.3 18.6 82 2.0 W 19 26 10 14 1014.0 - 0.0
15/07:00pm 21.9 21.9 18.9 83 1.9 W 17 26 9 14 1013.7 - 0.0
15/06:30pm 22.3 22.1 18.6 79 2.3 W 17 22 9 12 1013.4 - 0.0
15/06:00pm 22.9 22.2 18.3 75 2.9 W 19 24 10 13 1013.0 1013.0 0.0
15/05:30pm 23.6 22.2 16.6 65 4.3 W 19 24 10 13 1012.9 - 0.0
15/05:00pm 24.2 22.5 16.3 61 4.8 W 20 24 11 13 1012.6 - 0.0
15/04:30pm 25.0 23.3 16.2 58 5.4 W 20 28 11 15 1012.5 - 0.0
15/04:00pm 25.2 23.0 17.0 60 5.1 W 24 32 13 17 1012.6 - 0.0
15/03:30pm 25.3 22.4 15.2 53 6.1 W 24 35 13 19 1012.5 - 0.0
15/03:00pm 26.3 22.6 13.8 46 7.4 W 26 33 14 18 1012.5 1012.5 0.0
15/02:30pm 26.9 24.1 13.1 42 8.1 WSW 20 28 11 15 1012.6 - 0.0
15/02:00pm 28.4 25.2 11.3 34 9.8 WSW 19 24 10 13 1012.5 - 0.0
15/01:30pm 27.7 25.3 13.9 42 8.2 SW 19 22 10 12 1012.7 - 0.0
15/01:00pm 28.1 25.2 13.0 39 8.9 SSW 20 28 11 15 1013.1 - 0.0
15/12:30pm 29.4 26.7 13.4 37 9.5 SSW 20 24 11 13 1013.6 - 0.0
15/12:00pm 32.6 28.3 1.0 13 15.6 N 13 22 7 12 1014.2 1014.2 0.0
15/11:30am 31.7 27.2 0.0 13 15.3 N 13 20 7 11 1014.8 - 0.0
15/11:00am 30.3 26.4 1.2 15 14.2 NE 11 19 6 10 1015.2 - 0.0
15/10:30am 29.3 25.0 1.3 16 13.6 ENE 13 19 7 10 1015.6 - 0.0
15/10:00am 27.2 23.0 1.6 19 12.3 E 13 20 7 11 1016.0 - 0.0
15/09:30am 25.3 21.2 2.5 22 11.0 E 13 17 7 9 1016.1 - 0.0
15/09:00am 24.0 20.0 2.8 25 10.2 ESE 13 19 7 10 1016.1 1016.1 0.0
15/08:30am 22.0 18.2 3.8 30 8.8 ESE 13 15 7 8 1016.2 - 0.0
15/08:00am 19.4 17.3 6.6 43 6.4 E 7 9 4 5 1016.2 - 0.0
15/07:30am 16.9 16.4 9.4 61 3.9 ENE 2 6 1 3 1016.1 - 0.0
15/07:00am 14.1 12.5 8.7 70 2.7 E 7 9 4 5 1015.8 - 0.0
15/06:30am 13.2 10.8 8.6 73 2.3 E 11 13 6 7 1015.5 - 0.0
15/06:00am 12.9 10.2 9.1 78 1.9 E 13 15 7 8 1015.1 1015.1 0.0
15/05:30am 13.7 11.2 9.6 76 2.1 ESE 13 15 7 8 1015.0 - 0.0
15/05:00am 14.0 11.7 10.4 79 1.9 E 13 15 7 8 1014.9 - 0.0
15/04:30am 14.2 12.1 11.2 82 1.6 ESE 13 15 7 8 1014.9 - 0.0
15/04:00am 14.1 12.2 11.7 85 1.3 ESE 13 15 7 8 1014.8 - 0.0
15/03:30am 14.6 13.7 12.6 88 1.1 ESE 9 11 5 6 1014.9 - 0.0
15/03:00am 14.9 14.0 12.5 85 1.3 SE 9 13 5 7 1014.8 1014.8 0.0
15/02:30am 15.3 14.0 12.6 84 1.5 SSE 11 13 6 7 1014.8 - 0.0
15/02:00am 15.3 14.1 12.8 85 1.4 SSE 11 13 6 7 1015.0 - 0.0
15/01:30am 16.6 15.5 13.2 80 1.9 SSE 11 13 6 7 1015.2 - 0.0
15/01:00am 16.0 15.5 12.7 81 1.8 SE 7 9 4 5 1015.4 - 0.0
15/12:30am 17.1 17.1 13.7 80 1.9 SE 6 9 3 5 1015.4 - 0.0
15/12:00am 17.8 17.4 14.1 79 2.1 SSE 9 15 5 8 1015.6 1015.6 0.0
 
Date/Time
WST
Temp
°C
App
Temp
°C
Dew
Point
Rel
Hum
%
Delta-T
°C
Wind Press
QNH
hPa
Press
MSL
hPa
Rain
since 9 am
mm
Dir
 
Spd
km/h
Gust
km/h
Spd
kts
Gust
kts
14/11:30pm 18.9 19.0 14.4 75 2.6 SSE 7 13 4 7 1015.9 - 0.0
14/11:00pm 19.0 18.2 15.1 78 2.3 SE 13 17 7 9 1015.9 - 0.0
14/10:30pm 20.0 18.7 15.8 77 2.5 SSE 17 19 9 10 1016.2 - 0.0
14/10:00pm 20.3 19.7 15.6 74 2.8 SSE 13 17 7 9 1016.6 - 0.0
14/09:30pm 20.8 20.0 15.2 70 3.3 SE 13 19 7 10 1016.6 - 0.0
14/09:00pm 21.4 20.5 14.8 66 3.9 SSE 13 19 7 10 1016.6 1016.6 0.0
14/08:30pm 22.0 19.4 13.9 60 4.7 SSE 20 26 11 14 1016.2 - 0.0
14/08:00pm 22.2 23.9 16.2 69 3.6 SSE 2 6 1 3 1016.2 - 0.0
14/07:30pm 22.6 20.3 15.8 65 4.1 SSE 22 32 12 17 1015.7 - 0.0
14/07:00pm 23.4 20.8 13.8 54 5.6 SSE 20 30 11 16 1015.5 - 0.0
14/06:30pm 23.6 22.1 16.2 63 4.5 S 19 26 10 14 1015.2 - 0.0
14/06:00pm 25.7 21.4 10.7 39 8.4 S 24 33 13 18 1015.1 1015.1 0.0
14/05:30pm 25.0 23.0 15.4 55 5.8 SW 20 26 11 14 1015.1 - 0.0
14/05:00pm 25.2 24.2 16.6 59 5.3 SW 17 22 9 12 1014.9 - 0.0
14/04:30pm 25.8 22.4 14.8 50 6.6 S 26 32 14 17 1014.8 - 0.0
14/04:00pm 25.8 21.6 13.5 46 7.2 S 28 37 15 20 1014.9 - 0.0
14/03:30pm 26.2 22.2 14.1 47 7.2 SSW 28 37 15 20 1015.0 - 0.0
14/03:00pm 25.2 20.8 14.2 50 6.5 SSW 30 37 16 20 1015.1 1015.1 0.0
14/02:30pm 24.9 20.1 14.0 50 6.4 S 32 41 17 22 1015.3 - 0.0
14/02:00pm 24.9 20.4 15.5 56 5.7 S 33 41 18 22 1015.4 - 0.0
14/01:30pm 24.4 19.9 15.4 57 5.4 SSW 33 41 18 22 1015.7 - 0.0
14/01:00pm 24.5 20.3 16.3 60 5.0 S 33 43 18 23 1016.0 - 0.0
14/12:30pm 25.1 21.7 15.9 56 5.6 S 28 39 15 21 1016.3 - 0.0
14/12:00pm 28.4 24.4 4.8 22 12.1 E 15 24 8 13 1016.8 1016.8 0.0
14/11:30am 28.1 23.4 5.2 23 11.8 E 19 28 10 15 1017.4 - 0.0
14/11:00am 27.4 22.8 5.5 24 11.3 SE 19 28 10 15 1017.9 - 0.0
14/10:30am 25.5 20.0 6.1 29 10.0 SE 24 32 13 17 1017.9 - 0.0
14/10:00am 24.8 19.7 7.5 33 9.1 SE 24 33 13 18 1018.2 - 0.0
14/09:30am 23.2 17.8 8.2 38 7.9 SE 26 33 14 18 1018.3 - 0.0
14/09:00am 22.1 15.9 9.4 44 6.8 SSE 32 43 17 23 1018.3 1018.3 0.0
14/08:30am 20.8 15.9 11.4 55 5.2 SSE 28 35 15 19 1018.4 - 0.0
14/08:00am 19.9 14.5 12.2 61 4.3 SSE 32 43 17 23 1018.3 - 0.0
14/07:30am 18.9 14.9 14.0 73 2.8 SSE 28 39 15 21 1018.2 - 0.0
14/07:00am 17.9 14.4 14.4 80 2.0 SSE 26 35 14 19 1018.2 - 0.0
14/06:30am 17.7 13.7 14.2 80 2.0 S 28 35 15 19 1017.9 - 0.0
14/06:00am 17.8 13.8 14.1 79 2.1 S 28 37 15 20 1017.8 1017.8 0.0
14/05:30am 17.7 14.5 14.2 80 2.0 S 24 32 13 17 1017.5 - 0.0
14/05:00am 17.8 14.0 13.7 77 2.3 S 26 35 14 19 1017.2 - 0.0
14/04:30am 17.9 14.5 13.7 76 2.4 S 24 32 13 17 1017.0 - 0.0
14/04:00am 18.3 14.6 13.9 75 2.5 S 26 35 14 19 1016.8 - 0.0
14/03:30am 18.4 15.0 13.8 74 2.6 S 24 33 13 18 1017.0 - 0.0
14/03:00am 18.5 15.2 14.1 75 2.5 S 24 33 13 18 1017.2 1017.2 0.0
14/02:30am 18.8 15.2 14.1 74 2.7 S 26 33 14 18 1017.3 - 0.0
14/02:00am 18.8 15.5 14.1 74 2.7 S 24 32 13 17 1017.3 - 0.0
14/01:30am 18.9 15.2 13.8 72 2.9 S 26 32 14 17 1017.4 - 0.0
14/01:00am 18.9 16.3 13.8 72 2.9 S 20 26 11 14 1017.6 - 0.0
14/12:30am 19.2 17.0 14.5 74 2.7 S 19 24 10 13 1017.9 - 0.0
14/12:00am 19.4 17.1 14.6 74 2.8 SSE 20 30 11 16 1017.9 1017.9 0.0
 
Date/Time
WST
Temp
°C
App
Temp
°C
Dew
Point
Rel
Hum
%
Delta-T
°C
Wind Press
QNH
hPa
Press
MSL
hPa
Rain
since 9 am
mm
Dir
 
Spd
km/h
Gust
km/h
Spd
kts
Gust
kts
13/11:30pm 19.5 17.5 15.4 77 2.4 S 20 26 11 14 1018.0 - 0.0
13/11:00pm 19.7 16.7 14.9 74 2.8 S 24 33 13 18 1018.1 - 0.0
13/10:30pm 19.8 16.4 14.8 73 2.9 S 26 35 14 19 1018.3 - 0.0
13/10:00pm 19.9 17.3 14.9 73 2.9 S 22 30 12 16 1018.4 - 0.0
13/09:30pm 20.1 17.5 15.0 72 3.0 S 22 30 12 16 1018.4 - 0.0
13/09:00pm 20.6 17.3 14.0 66 3.8 S 24 33 13 18 1018.2 1018.2 0.0
13/08:30pm 20.9 17.8 14.4 66 3.8 S 24 37 13 20 1018.1 - 0.0
13/08:00pm 21.2 17.7 14.5 65 3.9 S 26 35 14 19 1017.9 - 0.0
13/07:30pm 21.6 18.1 15.6 68 3.6 S 28 39 15 21 1017.6 - 0.0
13/07:00pm 21.7 18.0 15.9 69 3.5 S 30 37 16 20 1017.5 - 0.0
13/06:30pm 21.8 17.2 14.6 63 4.2 S 32 41 17 22 1017.4 - 0.0
13/06:00pm 22.3 18.2 15.0 63 4.3 SSW 30 39 16 21 1017.3 1017.3 0.0
13/05:30pm 23.1 18.2 12.6 51 6.0 SSW 30 39 16 21 1017.2 - 0.0
13/05:00pm 23.6 18.7 12.4 49 6.4 SSW 30 39 16 21 1016.9 - 0.0
13/04:30pm 23.9 19.0 13.6 52 6.0 SSW 32 37 17 20 1016.9 - 0.0
13/04:00pm 23.6 19.4 14.6 57 5.3 SSW 30 37 16 20 1017.1 - 0.0
13/03:30pm 24.2 19.5 13.1 50 6.4 SSW 30 35 16 19 1017.2 - 0.0
13/03:00pm 24.4 18.8 11.6 44 7.2 S 32 37 17 20 1017.3 1017.3 0.0
13/02:30pm 23.6 18.1 12.4 49 6.4 S 33 43 18 23 1017.3 - 0.0
13/02:00pm 23.7 18.3 12.9 50 6.2 S 33 41 18 22 1017.6 - 0.0
13/01:30pm 22.9 17.8 13.6 55 5.4 S 33 41 18 22 1018.0 - 0.0
13/01:00pm 23.2 18.5 14.4 57 5.2 SSW 32 41 17 22 1018.2 - 0.0
13/12:30pm 23.0 18.4 14.7 59 4.9 SSW 32 43 17 23 1018.5 - 0.0
13/12:00pm 23.5 18.8 14.3 56 5.4 S 32 39 17 21 1018.8 1018.8 0.0
13/11:30am 24.4 19.1 11.4 44 7.3 S 30 37 16 20 1019.2 - 0.0
13/11:00am 23.5 17.6 10.4 43 7.2 S 32 39 17 21 1019.5 - 0.0

Other Formats:

Comma delimited format used in spreadsheet applications
http://www.bom.gov.au/fwo/IDW60801/IDW60801.94300.axf

JavaScript Object Notation format (JSON) in row-major order
http://www.bom.gov.au/fwo/IDW60801/IDW60801.94300.json